Time;durP1;ratioP1;P1;durP2;ratioP2;P2;SDS_P1;SDS_P2;PMS_P1;PMS_P2;Temp;Humidity;BMP_temperature;BMP_pressure;BME280_temperature;BME280_humidity;BME280_pressure;Samples;Min_cycle;Max_cycle;Signal;HPM_P1;HPM_P2
2023/09/21 00:02:24;;;;;;;6.25;4.28;;;;;;;15.79;100.00;93288.81;5112918;27;20040;-79
2023/09/21 00:04:51;;;;;;;8.40;5.55;;;;;;;15.84;100.00;93294.81;5110794;27;20066;-79
2023/09/21 00:07:19;;;;;;;8.50;4.70;;;;;;;15.78;100.00;93295.78;5108528;27;20040;-79
2023/09/21 00:09:47;;;;;;;5.88;3.97;;;;;;;15.87;100.00;93298.75;5109209;27;20047;-79
2023/09/21 00:12:14;;;;;;;9.05;5.18;;;;;;;15.83;100.00;93284.72;5124647;27;20130;-79
2023/09/21 00:14:41;;;;;;;8.57;4.45;;;;;;;15.92;100.00;93292.84;5108351;28;20047;-79
2023/09/21 00:17:09;;;;;;;7.80;4.20;;;;;;;15.96;100.00;93293.97;5109264;27;20047;-79
2023/09/21 00:19:36;;;;;;;8.20;4.72;;;;;;;15.99;100.00;93290.88;5109221;27;20043;-79
2023/09/21 00:22:04;;;;;;;9.88;5.45;;;;;;;16.02;100.00;93293.00;5109250;27;20058;-79
2023/09/21 00:24:32;;;;;;;7.25;4.47;;;;;;;16.07;100.00;93281.91;5108605;27;20414;-78
2023/09/21 00:27:02;;;;;;;8.43;4.82;;;;;;;16.12;100.00;93287.16;5108978;27;20039;-78
2023/09/21 00:29:30;;;;;;;8.13;4.00;;;;;;;16.17;100.00;93295.75;5108289;27;20496;-82
2023/09/21 00:31:57;;;;;;;7.40;4.90;;;;;;;16.16;100.00;93299.38;5110879;27;20116;-82
2023/09/21 00:34:24;;;;;;;9.93;5.50;;;;;;;16.12;100.00;93311.25;5111522;27;20057;-80
2023/09/21 00:36:51;;;;;;;8.48;4.40;;;;;;;15.77;100.00;93309.75;5108912;27;20051;-81
2023/09/21 00:39:18;;;;;;;9.15;4.80;;;;;;;15.36;100.00;93309.97;5116966;27;20514;-78
2023/09/21 00:41:45;;;;;;;10.75;5.80;;;;;;;15.23;100.00;93306.69;5109694;27;20047;-79
2023/09/21 00:44:14;;;;;;;10.52;5.75;;;;;;;15.22;100.00;93287.00;5108313;28;20070;-80
2023/09/21 00:46:41;;;;;;;11.52;5.97;;;;;;;15.28;100.00;93285.28;5109869;27;20052;-80
2023/09/21 00:49:08;;;;;;;8.85;5.10;;;;;;;15.58;100.00;93304.88;5111064;27;20055;-80
2023/09/21 00:51:56;;;;;;;7.45;5.47;;;;;;;15.78;100.00;93298.38;5108646;27;20051;-80
2023/09/21 00:54:24;;;;;;;6.70;4.97;;;;;;;15.90;100.00;93293.09;5125307;27;20086;-81
2023/09/21 00:56:52;;;;;;;9.30;4.63;;;;;;;15.99;100.00;93283.13;5121511;27;20054;-80
2023/09/21 00:59:21;;;;;;;8.05;4.78;;;;;;;16.12;100.00;93285.34;5108069;27;20514;-80
2023/09/21 01:01:49;;;;;;;8.27;4.53;;;;;;;16.23;100.00;93299.19;5107289;27;20101;-80
2023/09/21 01:04:16;;;;;;;7.90;4.65;;;;;;;16.22;100.00;93297.66;5108486;27;20057;-80
2023/09/21 01:06:47;;;;;;;9.23;5.47;;;;;;;16.31;100.00;93303.19;5108074;27;20050;-80
2023/09/21 01:09:17;;;;;;;8.32;4.90;;;;;;;16.21;100.00;93296.09;5112090;27;20047;-80
2023/09/21 01:11:44;;;;;;;6.85;4.30;;;;;;;16.27;100.00;93296.91;5107472;28;20044;-81
2023/09/21 01:14:11;;;;;;;9.98;5.28;;;;;;;16.28;100.00;93303.66;5118926;27;20054;-80
2023/09/21 01:16:40;;;;;;;9.98;5.00;;;;;;;16.29;100.00;93297.44;5117619;27;20040;-79
2023/09/21 01:19:07;;;;;;;7.97;4.88;;;;;;;16.24;100.00;93297.41;5115912;27;20064;-79
2023/09/21 01:21:36;;;;;;;9.02;5.70;;;;;;;16.28;100.00;93299.25;5115743;27;20035;-80
2023/09/21 01:24:06;;;;;;;8.70;4.65;;;;;;;16.16;100.00;93272.69;5115754;27;20050;-79
2023/09/21 01:26:33;;;;;;;7.75;5.50;;;;;;;16.34;100.00;93288.94;5118734;27;20127;-79
2023/09/21 01:29:01;;;;;;;6.50;4.93;;;;;;;16.27;100.00;93279.56;5114057;27;20043;-80
2023/09/21 01:31:29;;;;;;;7.90;4.82;;;;;;;16.30;100.00;93281.66;5118233;27;20058;-80
2023/09/21 01:33:59;;;;;;;9.00;4.43;;;;;;;16.21;100.00;93264.19;5114822;27;20047;-79
2023/09/21 01:36:26;;;;;;;9.25;4.60;;;;;;;16.26;100.00;93274.59;5115070;27;20051;-79
2023/09/21 01:38:54;;;;;;;7.65;4.70;;;;;;;16.23;100.00;93278.47;5114143;27;20047;-79
2023/09/21 01:41:23;;;;;;;8.43;4.97;;;;;;;16.21;100.00;93280.53;5118049;27;20077;-80
2023/09/21 01:43:50;;;;;;;8.98;5.00;;;;;;;16.23;100.00;93268.09;5111106;27;20049;-80
2023/09/21 01:46:21;;;;;;;7.75;4.75;;;;;;;16.18;100.00;93265.47;5114690;27;20043;-78
2023/09/21 01:48:51;;;;;;;7.28;4.90;;;;;;;16.16;100.00;93265.69;5113647;28;20092;-78
2023/09/21 01:51:18;;;;;;;8.43;4.97;;;;;;;16.19;100.00;93267.00;5114830;28;20126;-79
2023/09/21 01:53:45;;;;;;;6.70;4.53;;;;;;;16.20;100.00;93260.81;5115267;28;20054;-79
2023/09/21 01:56:12;;;;;;;9.93;5.20;;;;;;;16.08;100.00;93235.03;5118107;28;20084;-78
2023/09/21 01:58:40;;;;;;;7.85;5.03;;;;;;;16.22;100.00;93234.66;5118014;28;20036;-78
2023/09/21 02:01:08;;;;;;;9.38;5.45;;;;;;;16.23;100.00;93237.00;5114135;28;20055;-80
2023/09/21 02:03:35;;;;;;;9.98;4.72;;;;;;;16.24;100.00;93235.22;5114287;28;20067;-80
2023/09/21 02:06:03;;;;;;;5.93;4.25;;;;;;;16.30;100.00;93244.59;5114450;28;20075;-80
2023/09/21 02:08:31;;;;;;;8.55;4.65;;;;;;;16.19;100.00;93228.16;5115456;28;20390;-80
2023/09/21 02:10:58;;;;;;;8.35;4.90;;;;;;;16.22;100.00;93235.44;5113730;28;20109;-80
2023/09/21 02:13:25;;;;;;;7.00;4.32;;;;;;;16.12;100.00;93219.78;5115016;28;20051;-80
2023/09/21 02:15:54;;;;;;;7.20;4.28;;;;;;;16.18;100.00;93231.78;5113928;28;20162;-80
2023/09/21 02:18:21;;;;;;;8.00;5.15;;;;;;;16.19;100.00;93230.72;5112714;28;20048;-80
2023/09/21 02:20:50;;;;;;;8.00;5.28;;;;;;;16.14;100.00;93228.88;5113579;28;20047;-79
2023/09/21 02:23:17;;;;;;;7.95;5.43;;;;;;;16.13;100.00;93231.72;5115320;28;20067;-79
2023/09/21 02:25:45;;;;;;;10.52;5.35;;;;;;;16.08;100.00;93222.09;5120254;27;20051;-79
2023/09/21 02:28:12;;;;;;;8.25;5.10;;;;;;;16.10;100.00;93227.78;5116329;27;20130;-81
2023/09/21 02:30:40;;;;;;;8.40;5.25;;;;;;;16.12;100.00;93222.38;5119002;27;20657;-79
2023/09/21 02:33:09;;;;;;;6.88;4.63;;;;;;;16.11;100.00;93223.41;5116577;27;20100;-79
2023/09/21 02:35:41;;;;;;;10.45;5.80;;;;;;;16.10;100.00;93229.63;5112197;27;20138;-79
2023/09/21 02:38:09;;;;;;;8.38;5.30;;;;;;;16.10;100.00;93232.97;5104770;27;20040;-79
2023/09/21 02:40:36;;;;;;;8.40;5.03;;;;;;;16.07;100.00;93224.91;5104941;27;20044;-81
2023/09/21 02:43:04;;;;;;;9.52;5.30;;;;;;;16.01;100.00;93226.66;5102452;27;20044;-80
2023/09/21 02:45:31;;;;;;;7.10;5.00;;;;;;;16.02;100.00;93225.66;5105176;27;20051;-80
2023/09/21 02:48:00;;;;;;;8.57;5.05;;;;;;;15.99;100.00;93226.13;5102660;27;20483;-80
2023/09/21 02:50:30;;;;;;;8.55;5.05;;;;;;;15.94;100.00;93215.69;5104604;27;20384;-80
2023/09/21 02:53:01;;;;;;;9.23;5.05;;;;;;;15.97;100.00;93228.94;5108334;27;20446;-80
2023/09/21 02:55:29;;;;;;;9.82;4.97;;;;;;;15.98;100.00;93227.16;5109070;27;20102;-80
2023/09/21 02:57:58;;;;;;;10.02;5.38;;;;;;;15.99;100.00;93221.75;5113050;27;20071;-80
2023/09/21 03:00:27;;;;;;;8.18;5.50;;;;;;;16.00;100.00;93231.06;5111348;27;20064;-80
2023/09/21 03:02:55;;;;;;;7.57;5.13;;;;;;;15.86;100.00;93215.09;5107062;27;20047;-80
2023/09/21 03:05:23;;;;;;;8.07;5.00;;;;;;;15.86;100.00;93206.53;5108600;27;20126;-80
2023/09/21 03:07:52;;;;;;;8.05;5.30;;;;;;;16.01;100.00;93226.66;5106156;27;20043;-82
2023/09/21 03:10:19;;;;;;;8.48;4.85;;;;;;;15.99;100.00;93228.72;5107983;27;20066;-82
2023/09/21 03:12:51;;;;;;;9.73;4.90;;;;;;;15.92;100.00;93222.91;5109110;27;20123;-81
2023/09/21 03:15:22;;;;;;;8.80;5.68;;;;;;;15.90;100.00;93220.56;5111509;27;20066;-84
2023/09/21 03:17:52;;;;;;;9.27;5.25;;;;;;;15.90;100.00;93217.97;5107089;27;20090;-81
2023/09/21 03:20:28;;;;;;;7.55;5.68;;;;;;;15.88;100.00;93220.78;5107472;27;20079;-81
2023/09/21 03:22:57;;;;;;;28.25;17.48;;;;;;;15.76;100.00;93204.59;5106679;27;20093;-80
2023/09/21 03:25:31;;;;;;;32.10;20.63;;;;;;;15.88;100.00;93220.78;5109257;27;20043;-80
2023/09/21 03:27:59;;;;;;;22.50;13.82;;;;;;;15.84;100.00;93218.94;5105173;27;20126;-80
2023/09/21 03:30:27;;;;;;;36.75;25.50;;;;;;;15.83;100.00;93220.75;5109491;27;20047;-80
2023/09/21 03:32:54;;;;;;;33.35;20.60;;;;;;;15.70;100.00;93219.28;5103555;27;20039;-79
2023/09/21 03:35:26;;;;;;;31.80;22.30;;;;;;;15.59;100.00;93220.97;5108251;27;20047;-79
2023/09/21 03:37:54;;;;;;;21.63;16.33;;;;;;;15.52;100.00;93220.38;5104972;27;20038;-81
2023/09/21 03:40:22;;;;;;;15.48;9.75;;;;;;;15.39;100.00;93203.41;5107288;27;20563;-80
2023/09/21 03:42:49;;;;;;;10.68;7.28;;;;;;;15.46;100.00;93216.16;5107647;27;20065;-79
2023/09/21 03:45:16;;;;;;;11.60;8.80;;;;;;;15.41;100.00;93221.28;5105339;27;20052;-80
2023/09/21 03:47:43;;;;;;;10.15;6.80;;;;;;;15.35;100.00;93216.03;5111430;27;20499;-80
2023/09/21 03:50:15;;;;;;;14.65;9.18;;;;;;;15.34;100.00;93211.88;5110803;27;20051;-80
2023/09/21 03:52:42;;;;;;;12.75;8.60;;;;;;;15.36;100.00;93204.66;5107816;27;20036;-80
2023/09/21 03:55:15;;;;;;;12.35;8.15;;;;;;;15.33;100.00;93196.59;5109090;27;20067;-79
2023/09/21 03:57:45;;;;;;;11.73;7.50;;;;;;;15.54;100.00;93220.13;5107756;27;20047;-81
2023/09/21 04:00:25;;;;;;;11.95;7.53;;;;;;;15.56;100.00;93215.50;5107186;27;20047;-80
2023/09/21 04:02:51;;;;;;;12.85;7.88;;;;;;;15.54;100.00;93210.56;5108185;27;20174;-80
2023/09/21 04:05:20;;;;;;;65.65;32.28;;;;;;;15.59;100.00;93213.22;5108102;27;20051;-80
2023/09/21 04:07:47;;;;;;;42.00;20.27;;;;;;;15.62;100.00;93222.31;5110129;27;20043;-80
2023/09/21 04:10:15;;;;;;;26.98;15.65;;;;;;;15.63;100.00;93223.88;5109477;27;20071;-81
2023/09/21 04:12:43;;;;;;;28.75;14.77;;;;;;;15.65;100.00;93221.03;5101589;27;20426;-80
2023/09/21 04:15:11;;;;;;;20.73;12.60;;;;;;;15.65;100.00;93228.81;5109344;27;20042;-81
2023/09/21 04:17:39;;;;;;;19.88;10.32;;;;;;;15.55;100.00;93222.47;5109827;27;20237;-80
2023/09/21 04:20:10;;;;;;;15.65;9.30;;;;;;;15.66;100.00;93232.97;5104318;27;20052;-80
2023/09/21 04:22:38;;;;;;;15.40;9.45;;;;;;;15.67;100.00;93232.72;5106565;27;20053;-81
2023/09/21 04:25:09;;;;;;;15.63;8.75;;;;;;;15.67;100.00;93227.56;5100000;27;20055;-81
2023/09/21 04:27:38;;;;;;;13.88;8.38;;;;;;;15.61;100.00;93207.81;5109820;27;20044;-82
2023/09/21 04:30:09;;;;;;;14.75;7.80;;;;;;;15.74;100.00;93230.75;5109757;27;21087;-82
2023/09/21 04:32:37;;;;;;;14.77;7.30;;;;;;;15.79;100.00;93232.63;5109939;27;20047;-80
2023/09/21 04:35:05;;;;;;;11.80;7.03;;;;;;;15.81;100.00;93237.53;5107911;27;20392;-80
2023/09/21 04:37:32;;;;;;;10.85;6.43;;;;;;;15.86;100.00;93241.00;5118444;27;20031;-81
2023/09/21 04:39:59;;;;;;;11.98;6.60;;;;;;;15.88;100.00;93244.09;5114248;27;20124;-81
2023/09/21 04:42:28;;;;;;;11.07;7.05;;;;;;;15.97;100.00;93243.72;5120725;27;20054;-81
2023/09/21 04:44:56;;;;;;;12.82;6.35;;;;;;;16.01;100.00;93242.19;5117039;27;20058;-81
2023/09/21 04:47:24;;;;;;;12.48;6.75;;;;;;;15.96;100.00;93226.63;5110844;27;20105;-81
2023/09/21 04:49:53;;;;;;;9.25;6.53;;;;;;;16.12;100.00;93243.09;5110743;27;20044;-81
2023/09/21 04:52:21;;;;;;;11.95;7.07;;;;;;;16.14;100.00;93238.44;5113541;27;20047;-80
2023/09/21 04:54:51;;;;;;;11.30;6.35;;;;;;;16.21;100.00;93241.66;5114316;27;20085;-80
2023/09/21 04:57:18;;;;;;;12.60;6.85;;;;;;;16.26;100.00;93239.09;5110869;27;20406;-81
2023/09/21 04:59:46;;;;;;;16.27;8.00;;;;;;;16.31;100.00;93243.56;5111251;27;20043;-81
2023/09/21 05:02:13;;;;;;;11.93;7.22;;;;;;;16.34;100.00;93240.47;5111486;27;20384;-81
2023/09/21 05:04:41;;;;;;;11.73;7.15;;;;;;;16.34;100.00;93218.97;5110502;27;20042;-81
2023/09/21 05:07:08;;;;;;;12.18;6.65;;;;;;;16.47;100.00;93222.97;5110443;27;20957;-81
2023/09/21 05:09:35;;;;;;;11.15;7.50;;;;;;;16.46;100.00;93229.97;5111476;27;20043;-81
2023/09/21 05:12:03;;;;;;;16.05;8.30;;;;;;;16.44;100.00;93232.03;5117458;27;20039;-81
2023/09/21 05:14:30;;;;;;;16.85;8.45;;;;;;;16.48;100.00;93235.66;5119790;27;20039;-81
2023/09/21 05:16:58;;;;;;;15.93;8.45;;;;;;;16.51;100.00;93237.00;5116261;27;20043;-81
2023/09/21 05:19:25;;;;;;;14.15;8.82;;;;;;;16.43;100.00;93227.84;5115286;27;20071;-81
2023/09/21 05:21:56;;;;;;;16.45;8.88;;;;;;;16.41;100.00;93209.16;5113193;27;20039;-81
2023/09/21 05:24:25;;;;;;;16.83;7.57;;;;;;;16.60;100.00;93227.75;5116170;27;20052;-82
2023/09/21 05:26:52;;;;;;;17.55;8.40;;;;;;;16.55;100.00;93201.78;5114031;27;20418;-81
2023/09/21 05:29:20;;;;;;;16.45;8.23;;;;;;;16.79;100.00;93222.97;5116203;27;20047;-81
2023/09/21 05:31:47;;;;;;;24.02;10.55;;;;;;;16.80;100.00;93210.78;5117628;27;20055;-81
2023/09/21 05:34:14;;;;;;;17.58;9.20;;;;;;;16.96;100.00;93224.66;5116095;27;20059;-80
2023/09/21 05:36:42;;;;;;;16.02;8.32;;;;;;;16.87;100.00;93203.56;5098475;27;20048;-81
2023/09/21 05:39:11;;;;;;;15.55;8.57;;;;;;;17.08;100.00;93232.31;5097726;27;20044;-81
2023/09/21 05:41:39;;;;;;;20.10;9.85;;;;;;;17.19;100.00;93231.34;5098244;27;20050;-81
2023/09/21 05:44:06;;;;;;;18.88;8.27;;;;;;;17.20;100.00;93217.31;5097856;27;20051;-81
2023/09/21 05:46:33;;;;;;;15.13;8.75;;;;;;;17.34;100.00;93241.03;5101756;27;20510;-81
2023/09/21 05:49:00;;;;;;;16.60;9.15;;;;;;;17.42;100.00;93236.38;5099837;28;20098;-81
2023/09/21 05:51:27;;;;;;;23.05;9.20;;;;;;;17.47;100.00;93234.59;5100769;28;20040;-80
2023/09/21 05:53:53;;;;;;;20.70;9.20;;;;;;;17.60;100.00;93232.59;5104951;28;20607;-81
2023/09/21 05:56:22;;;;;;;16.42;8.75;;;;;;;17.72;100.00;93248.75;5096140;28;20456;-81
2023/09/21 05:58:48;;;;;;;20.50;8.82;;;;;;;17.77;100.00;93243.56;5095301;28;20051;-81
2023/09/21 06:01:15;;;;;;;21.75;9.40;;;;;;;17.91;100.00;93248.28;5106330;27;20492;-81
2023/09/21 06:03:42;;;;;;;23.40;11.55;;;;;;;17.95;100.00;93246.75;5103428;27;20040;-81
2023/09/21 06:06:10;;;;;;;25.52;11.02;;;;;;;17.99;100.00;93245.22;5105883;27;20044;-81
2023/09/21 06:08:38;;;;;;;21.58;10.63;;;;;;;17.89;100.00;93230.38;5099587;27;20177;-81
2023/09/21 06:11:05;;;;;;;23.52;9.73;;;;;;;18.10;100.00;93246.03;5103212;27;20077;-80
2023/09/21 06:13:33;;;;;;;18.98;9.98;;;;;;;18.21;100.00;93243.47;5101796;27;20051;-81
2023/09/21 06:16:02;;;;;;;20.63;9.43;;;;;;;18.30;100.00;93239.34;5109802;27;20053;-82
2023/09/21 06:18:29;;;;;;;22.13;9.85;;;;;;;18.38;100.00;93240.66;5111716;27;20043;-81
2023/09/21 06:20:56;;;;;;;25.35;11.48;;;;;;;18.53;100.00;93239.91;5105468;27;20071;-81
2023/09/21 06:23:23;;;;;;;23.15;11.88;;;;;;;18.42;100.00;93213.09;5108938;27;20054;-81
2023/09/21 06:25:50;;;;;;;27.17;12.23;;;;;;;18.74;100.00;93240.69;5111736;27;20054;-81
2023/09/21 06:28:18;;;;;;;22.90;10.52;;;;;;;18.81;100.00;93249.03;5107434;27;20050;-81
2023/09/21 06:31:05;;;;;;;21.40;10.65;;;;;;;18.84;100.00;93245.13;5103154;27;20068;-82
2023/09/21 06:33:32;;;;;;;21.48;10.45;;;;;;;18.93;100.00;93251.38;5100575;27;20047;-81
2023/09/21 06:35:59;;;;;;;17.50;10.10;;;;;;;19.00;100.00;93248.53;5112608;27;20680;-81
2023/09/21 06:38:26;;;;;;;21.30;10.70;;;;;;;19.13;100.00;93246.44;5119862;27;20051;-82
2023/09/21 06:40:52;;;;;;;25.02;11.07;;;;;;;19.27;100.00;93246.69;5117344;27;20043;-82
2023/09/21 06:43:19;;;;;;;33.70;17.58;;;;;;;19.24;100.00;93248.00;5115616;27;20051;-82
2023/09/21 06:45:48;;;;;;;39.95;22.20;;;;;;;19.38;100.00;93244.88;5117800;27;20054;-82
2023/09/21 06:48:16;;;;;;;55.17;27.90;;;;;;;19.41;100.00;93234.69;5122623;27;20058;-82
2023/09/21 06:50:43;;;;;;;53.10;25.45;;;;;;;19.46;100.00;93241.72;5120636;27;20100;-82
2023/09/21 06:53:10;;;;;;;54.13;27.88;;;;;;;19.52;100.00;93245.88;5115416;27;20059;-81
2023/09/21 06:55:37;;;;;;;47.47;23.52;;;;;;;19.34;100.00;93236.78;5118996;27;20043;-81
2023/09/21 06:58:06;;;;;;;34.40;18.65;;;;;;;19.27;100.00;93239.69;5118564;27;20075;-81
2023/09/21 07:00:33;;;;;;;40.28;16.20;;;;;;;19.32;100.00;93239.66;5119695;27;20043;-82
2023/09/21 07:03:01;;;;;;;45.88;16.90;;;;;;;19.23;100.00;93210.78;5117947;27;20043;-81
2023/09/21 07:05:28;;;;;;;38.30;20.33;;;;;;;19.49;100.00;93236.00;5120030;27;20053;-81
2023/09/21 07:07:55;;;;;;;42.05;20.90;;;;;;;19.72;100.00;93247.63;5121667;27;20491;-82
2023/09/21 07:10:22;;;;;;;45.38;19.48;;;;;;;19.97;100.00;93248.63;5117251;27;20503;-82
2023/09/21 07:12:48;;;;;;;36.40;16.80;;;;;;;20.11;100.00;93229.78;5118979;27;20050;-81
2023/09/21 07:15:15;;;;;;;38.65;18.60;;;;;;;20.24;100.00;93225.81;5115967;27;20045;-81
2023/09/21 07:17:42;;;;;;;48.30;20.08;;;;;;;20.60;100.00;93249.06;5116812;27;20510;-82
2023/09/21 07:20:12;;;;;;;34.35;17.98;;;;;;;20.73;100.00;93250.28;5122986;27;20043;-82
2023/09/21 07:22:39;;;;;;;35.00;17.48;;;;;;;20.92;100.00;93253.03;5118754;27;20043;-83
2023/09/21 07:25:06;;;;;;;29.30;14.55;;;;;;;21.12;100.00;93259.16;5127738;27;20129;-82
2023/09/21 07:27:36;;;;;;;31.83;14.93;;;;;;;21.29;100.00;93260.59;5119681;27;20039;-82
2023/09/21 07:30:03;;;;;;;23.30;13.00;;;;;;;21.39;100.00;93244.81;5116621;27;20047;-83
2023/09/21 07:32:30;;;;;;;21.48;12.00;;;;;;;21.69;100.00;93263.84;5116457;27;20422;-84
2023/09/21 07:34:58;;;;;;;28.42;12.35;;;;;;;21.87;100.00;93262.38;5111114;27;20055;-82
2023/09/21 07:37:26;;;;;;;22.17;10.75;;;;;;;22.04;100.00;93258.53;5096401;27;20052;-83
2023/09/21 07:39:53;;;;;;;27.30;9.45;;;;;;;22.28;100.00;93266.31;5103007;27;20482;-83
2023/09/21 07:42:20;;;;;;;20.35;9.25;;;;;;;22.50;99.28;93259.00;5106335;27;20051;-83
2023/09/21 07:44:48;;;;;;;24.48;10.63;;;;;;;22.65;98.23;93263.25;5101329;27;20052;-84
2023/09/21 07:47:16;;;;;;;19.35;8.20;;;;;;;22.75;97.21;93252.63;5106100;27;20044;-82
2023/09/21 07:49:44;;;;;;;13.30;9.05;;;;;;;22.75;95.62;93231.69;5107178;27;20036;-84
2023/09/21 07:52:11;;;;;;;20.42;9.40;;;;;;;23.13;94.77;93264.88;5110332;27;20039;-82
2023/09/21 07:54:39;;;;;;;19.27;8.13;;;;;;;23.26;94.69;93265.97;5107970;27;20039;-84
2023/09/21 07:57:06;;;;;;;22.92;9.00;;;;;;;23.36;92.61;93257.19;5107292;27;20046;-84
2023/09/21 07:59:33;;;;;;;15.85;8.60;;;;;;;23.57;92.92;93267.31;5103447;27;20035;-83
2023/09/21 08:02:00;;;;;;;23.08;7.95;;;;;;;23.66;91.93;93255.13;5103107;27;20515;-84
2023/09/21 08:04:28;;;;;;;15.48;7.55;;;;;;;23.70;90.29;93250.06;5106835;27;20507;-82
2023/09/21 08:06:55;;;;;;;23.33;8.60;;;;;;;23.77;90.01;93255.69;5094446;27;20487;-84
2023/09/21 08:09:24;;;;;;;20.70;7.13;;;;;;;23.80;90.37;93257.72;5098070;27;20101;-83
2023/09/21 08:11:52;;;;;;;11.77;6.68;;;;;;;23.81;89.80;93263.75;5103757;27;20050;-83
2023/09/21 08:14:19;;;;;;;12.98;7.07;;;;;;;23.87;88.84;93263.34;5104110;27;20895;-82
2023/09/21 08:16:46;;;;;;;17.23;8.27;;;;;;;23.87;87.57;93273.84;5105640;27;20457;-82
2023/09/21 08:19:13;;;;;;;11.75;6.30;;;;;;;23.87;86.43;93271.22;5106756;27;20040;-83
2023/09/21 08:21:40;;;;;;;12.20;6.40;;;;;;;23.84;84.97;93271.81;5108206;27;20499;-84
2023/09/21 08:24:09;;;;;;;13.02;6.63;;;;;;;23.80;83.91;93280.56;5106224;27;20384;-83
2023/09/21 08:26:36;;;;;;;12.05;6.15;;;;;;;23.71;82.66;93277.84;5107665;27;20058;-85
2023/09/21 08:29:04;;;;;;;11.90;5.60;;;;;;;23.54;83.79;93252.94;5100931;27;20054;-82
2023/09/21 08:31:31;;;;;;;12.18;6.28;;;;;;;23.70;83.54;93284.16;5106888;27;20119;-82
2023/09/21 08:33:58;;;;;;;11.73;6.32;;;;;;;23.72;83.48;93285.41;5103980;27;20054;-82
2023/09/21 08:36:25;;;;;;;10.32;6.25;;;;;;;23.67;83.01;93285.50;5106702;27;20484;-82
2023/09/21 08:38:53;;;;;;;11.85;6.00;;;;;;;23.57;83.25;93285.69;5104907;27;20135;-84
2023/09/21 08:41:19;;;;;;;13.95;5.55;;;;;;;23.46;83.36;93274.59;5107781;27;20075;-83
2023/09/21 08:43:48;;;;;;;13.73;6.50;;;;;;;23.41;84.53;93272.06;5107119;27;20043;-84
2023/09/21 08:46:18;;;;;;;10.80;5.40;;;;;;;23.43;85.18;93278.59;5106267;27;20097;-83
2023/09/21 08:48:46;;;;;;;12.00;6.40;;;;;;;23.43;85.38;93278.59;5105289;27;20051;-83
2023/09/21 08:51:18;;;;;;;13.30;6.40;;;;;;;23.42;85.50;93279.63;5100185;27;20044;-83
2023/09/21 08:53:51;;;;;;;12.32;6.68;;;;;;;23.34;84.89;93272.44;5108504;27;20132;-82
2023/09/21 08:56:21;;;;;;;13.15;6.80;;;;;;;23.13;84.62;93264.13;5090704;28;20079;-82
2023/09/21 08:58:54;;;;;;;11.73;6.63;;;;;;;23.13;84.58;93272.75;5090855;28;20117;-82
2023/09/21 09:01:23;;;;;;;15.23;7.47;;;;;;;23.08;84.62;93267.59;5094119;27;20051;-80
2023/09/21 09:03:51;;;;;;;11.30;6.32;;;;;;;23.05;85.10;93260.31;5088085;28;20063;-84
2023/09/21 09:06:18;;;;;;;13.23;6.68;;;;;;;22.99;85.18;93264.06;5095886;27;20055;-82
2023/09/21 09:08:46;;;;;;;13.40;6.05;;;;;;;23.04;85.42;93262.13;5096774;28;20055;-82
2023/09/21 09:11:34;;;;;;;11.90;6.05;;;;;;;22.97;85.28;93261.75;5088585;27;20048;-81
2023/09/21 09:14:02;;;;;;;10.27;6.43;;;;;;;23.02;85.58;93259.03;5089036;28;20392;-81
2023/09/21 09:16:33;;;;;;;18.70;6.50;;;;;;;22.97;85.40;93235.53;5097404;28;20044;-80
2023/09/21 09:19:02;;;;;;;10.70;6.70;;;;;;;23.20;86.79;93252.19;5087687;28;20051;-82
2023/09/21 09:21:30;;;;;;;11.48;6.85;;;;;;;23.40;85.41;93255.56;5092629;28;20044;-82
2023/09/21 09:23:57;;;;;;;10.07;6.18;;;;;;;23.55;84.48;93251.13;5102975;27;20423;-81
2023/09/21 09:26:24;;;;;;;10.32;6.18;;;;;;;23.76;83.48;93254.91;5096426;27;20052;-80
2023/09/21 09:28:51;;;;;;;14.18;6.68;;;;;;;23.91;82.62;93258.31;5085945;28;20047;-81
2023/09/21 09:31:18;;;;;;;8.30;5.28;;;;;;;24.10;81.98;93252.97;5089943;28;20052;-81
2023/09/21 09:33:48;;;;;;;10.32;6.18;;;;;;;24.27;80.89;93260.25;5090134;28;20109;-80
2023/09/21 09:36:15;;;;;;;11.35;6.15;;;;;;;24.57;81.59;93253.88;5107851;27;20112;-82
2023/09/21 09:38:42;;;;;;;7.40;5.22;;;;;;;24.78;79.43;93249.69;5109459;27;20050;-82
2023/09/21 09:41:14;;;;;;;12.10;6.53;;;;;;;24.95;78.02;93246.44;5113903;27;20039;-80
2023/09/21 09:43:42;;;;;;;14.18;6.57;;;;;;;25.15;76.60;93243.63;5112886;27;20054;-81
2023/09/21 09:46:11;;;;;;;10.13;5.18;;;;;;;25.29;76.42;93235.66;5109347;27;20047;-81
2023/09/21 09:48:40;;;;;;;8.98;5.70;;;;;;;25.56;76.13;93239.22;5109614;28;20513;-82
2023/09/21 09:51:11;;;;;;;12.45;5.53;;;;;;;25.81;73.84;93252.75;5109187;28;20639;-83
2023/09/21 09:53:40;;;;;;;10.00;4.78;;;;;;;25.93;73.15;93255.59;5113315;28;20058;-78
2023/09/21 09:56:10;;;;;;;11.55;6.20;;;;;;;26.06;73.63;93253.91;5110460;28;20050;-81
2023/09/21 09:58:40;;;;;;;11.27;6.40;;;;;;;26.22;71.55;93237.69;5110856;28;20091;-81
2023/09/21 10:01:09;;;;;;;12.00;4.95;;;;;;;26.25;70.55;93247.63;5110566;28;20039;-80
2023/09/21 10:03:39;;;;;;;13.32;5.68;;;;;;;26.34;71.25;93251.03;5108333;28;20124;-84
2023/09/21 10:06:10;;;;;;;13.98;5.85;;;;;;;26.30;70.17;93260.66;5111391;28;20043;-85
2023/09/21 10:08:38;;;;;;;8.93;5.05;;;;;;;26.23;70.12;93268.19;5113598;28;20071;-84
2023/09/21 10:11:08;;;;;;;10.45;5.72;;;;;;;26.04;70.49;93242.91;5112945;27;20055;-86
2023/09/21 10:13:36;;;;;;;15.23;5.50;;;;;;;25.98;69.99;93231.78;5111332;28;20108;-84
2023/09/21 10:16:05;;;;;;;11.27;6.03;;;;;;;26.17;69.58;93258.88;5108455;28;20044;-84
2023/09/21 10:18:36;;;;;;;12.82;5.43;;;;;;;26.21;70.09;93257.97;5107943;28;20044;-82
2023/09/21 10:21:23;;;;;;;14.10;5.82;;;;;;;26.27;70.35;93254.16;5109288;28;20439;-85
2023/09/21 10:24:04;;;;;;;12.73;5.82;;;;;;;26.45;70.08;93261.28;5109567;28;20421;-84
2023/09/21 10:26:34;;;;;;;10.50;5.45;;;;;;;26.44;71.02;93244.72;5109094;28;20047;-84
2023/09/21 10:29:03;;;;;;;11.73;5.88;;;;;;;26.66;70.55;93258.81;5109643;28;20047;-82
2023/09/21 10:31:32;;;;;;;11.93;5.72;;;;;;;26.82;69.49;93256.50;5109429;28;20052;-84
2023/09/21 10:34:19;;;;;;;16.10;5.85;;;;;;;26.94;69.21;93256.66;5109719;28;20501;-84
2023/09/21 10:36:50;;;;;;;15.20;5.93;;;;;;;27.05;69.28;93240.53;5109349;28;20059;-84
2023/09/21 10:39:26;;;;;;;11.68;5.85;;;;;;;27.08;66.96;93230.13;5110522;28;20101;-84
2023/09/21 10:42:17;;;;;;;13.05;6.43;;;;;;;27.21;66.90;93227.59;5110780;28;20899;-85
2023/09/21 10:44:59;;;;;;;11.82;5.35;;;;;;;27.40;66.69;93253.63;5112417;28;20499;-80
2023/09/21 10:47:29;;;;;;;12.73;6.93;;;;;;;27.48;66.88;93252.84;5116257;27;20550;-84
2023/09/21 10:50:02;;;;;;;15.82;5.95;;;;;;;27.57;67.36;93242.25;5113323;27;20051;-83
2023/09/21 10:52:31;;;;;;;15.55;5.40;;;;;;;27.76;65.44;93249.03;5112627;27;20712;-84
2023/09/21 10:54:58;;;;;;;14.48;6.38;;;;;;;27.89;65.46;93247.25;5111373;27;20441;-84
2023/09/21 10:57:30;;;;;;;13.95;5.97;;;;;;;27.93;64.86;93240.25;5114733;27;20059;-85
2023/09/21 10:59:59;;;;;;;15.02;6.07;;;;;;;28.04;64.81;93237.25;5117960;27;20043;-84
2023/09/21 11:02:30;;;;;;;15.00;5.20;;;;;;;28.09;63.99;93229.91;5114318;27;20070;-84
2023/09/21 11:04:57;;;;;;;11.32;5.78;;;;;;;28.10;65.07;93220.13;5112137;27;20502;-84
2023/09/21 11:07:25;;;;;;;12.00;5.75;;;;;;;27.98;63.59;93207.63;5113401;27;20051;-86
2023/09/21 11:09:54;;;;;;;13.63;4.70;;;;;;;27.99;61.38;93220.50;5115511;27;20410;-86
2023/09/21 11:12:21;;;;;;;12.95;4.75;;;;;;;27.97;60.70;93208.72;5115257;27;20431;-86
2023/09/21 11:14:48;;;;;;;6.95;4.28;;;;;;;28.04;61.52;93205.56;5114580;27;20520;-84
2023/09/21 11:17:17;;;;;;;7.78;4.15;;;;;;;28.09;61.70;93192.19;5114666;27;20528;-84
2023/09/21 11:19:46;;;;;;;9.65;4.03;;;;;;;28.17;61.43;93195.88;5114044;27;20152;-85
2023/09/21 11:22:14;;;;;;;8.98;4.60;;;;;;;28.07;60.83;93160.81;5117858;27;20074;-85
2023/09/21 11:24:42;;;;;;;9.00;4.20;;;;;;;28.28;60.84;93186.50;5118496;27;20407;-85
2023/09/21 11:27:11;;;;;;;12.48;4.35;;;;;;;28.26;59.82;93172.81;5120309;27;20047;-84
2023/09/21 11:29:40;;;;;;;10.05;5.32;;;;;;;28.13;60.06;93159.53;5119141;27;20069;-85